Terminal Aerodrome Forecast
Issued by NWS

Current Version | Previous Version | Text Only | Print | Product List | Glossary On
Versions: 1 2 3 4 5 6 7 8 9 10 11 12 13 14 15 16 17 18 19 20 21 22 23 24 25 26 27 28 29 30 31 32
000
FTPQ31 PGUM 102300
TAFPQ
TAF

PGRO 102327Z 1100/1124 04006KT P6SM VCSH SCT016 SCT045 BKN120
     FM110500 05010KT P6SM VCSH SCT018 BKN045 BKN120=

USA.gov is the U.S. government's official web portal to all federal, state and local government web resources and services.